TAF KSNA
KSNA 081734Z 0818/0918 VRB03KT P6SM FEW025 FM082000 22007KT P6SM SCT030 SCT100 FM090200 VRB04KT P6SM SCT025 SCT040 FM090600 15005KT P6SM VCSH OVC025 FM091400 14006KT 5SM RA BR OVC015=
METAR KSNA
WC KSNA
WS KSNA
WV KSNA